sensor_id;sensor_type;location;lat;lon;timestamp;P1;durP1;ratioP1;P2;durP2;ratioP2
14554;SDS011;7364;50.870;4.722;2023-10-09T00:02:13;9.03;;;6.67;;
14554;SDS011;7364;50.870;4.722;2023-10-09T00:04:39;7.87;;;6.63;;
14554;SDS011;7364;50.870;4.722;2023-10-09T00:07:10;9.80;;;6.97;;
14554;SDS011;7364;50.870;4.722;2023-10-09T00:09:38;9.40;;;7.03;;
14554;SDS011;7364;50.870;4.722;2023-10-09T00:12:15;8.47;;;5.90;;
14554;SDS011;7364;50.870;4.722;2023-10-09T00:14:49;8.47;;;6.97;;
14554;SDS011;7364;50.870;4.722;2023-10-09T00:17:21;11.57;;;6.33;;
14554;SDS011;7364;50.870;4.722;2023-10-09T00:19:48;9.67;;;6.63;;
14554;SDS011;7364;50.870;4.722;2023-10-09T00:22:17;11.00;;;7.17;;
14554;SDS011;7364;50.870;4.722;2023-10-09T00:24:56;8.77;;;6.80;;
14554;SDS011;7364;50.870;4.722;2023-10-09T00:27:38;9.43;;;6.70;;
14554;SDS011;7364;50.870;4.722;2023-10-09T00:30:10;8.50;;;6.83;;
14554;SDS011;7364;50.870;4.722;2023-10-09T00:32:40;10.23;;;6.80;;
14554;SDS011;7364;50.870;4.722;2023-10-09T00:35:24;8.17;;;6.40;;
14554;SDS011;7364;50.870;4.722;2023-10-09T00:38:12;12.07;;;7.47;;
14554;SDS011;7364;50.870;4.722;2023-10-09T00:40:49;9.27;;;7.47;;
14554;SDS011;7364;50.870;4.722;2023-10-09T00:43:22;9.07;;;7.00;;
14554;SDS011;7364;50.870;4.722;2023-10-09T00:45:56;8.77;;;7.20;;
14554;SDS011;7364;50.870;4.722;2023-10-09T00:48:28;10.93;;;7.80;;
14554;SDS011;7364;50.870;4.722;2023-10-09T00:51:03;7.83;;;6.93;;
14554;SDS011;7364;50.870;4.722;2023-10-09T00:53:33;11.30;;;6.93;;
14554;SDS011;7364;50.870;4.722;2023-10-09T00:56:01;9.83;;;6.83;;
14554;SDS011;7364;50.870;4.722;2023-10-09T00:58:44;11.50;;;7.17;;
14554;SDS011;7364;50.870;4.722;2023-10-09T01:01:15;11.47;;;7.97;;
14554;SDS011;7364;50.870;4.722;2023-10-09T01:03:42;12.30;;;7.87;;
14554;SDS011;7364;50.870;4.722;2023-10-09T01:06:10;9.07;;;7.10;;
14554;SDS011;7364;50.870;4.722;2023-10-09T01:08:46;8.77;;;7.63;;
14554;SDS011;7364;50.870;4.722;2023-10-09T01:11:34;9.63;;;7.27;;
14554;SDS011;7364;50.870;4.722;2023-10-09T01:14:12;11.17;;;7.40;;
14554;SDS011;7364;50.870;4.722;2023-10-09T01:16:41;12.37;;;7.03;;
14554;SDS011;7364;50.870;4.722;2023-10-09T01:19:09;13.13;;;7.43;;
14554;SDS011;7364;50.870;4.722;2023-10-09T01:21:46;16.67;;;8.30;;
14554;SDS011;7364;50.870;4.722;2023-10-09T01:24:16;11.70;;;7.67;;
14554;SDS011;7364;50.870;4.722;2023-10-09T01:26:45;8.27;;;7.40;;
14554;SDS011;7364;50.870;4.722;2023-10-09T01:29:15;9.80;;;7.33;;
14554;SDS011;7364;50.870;4.722;2023-10-09T01:31:44;16.33;;;7.73;;
14554;SDS011;7364;50.870;4.722;2023-10-09T01:34:20;11.13;;;8.17;;
14554;SDS011;7364;50.870;4.722;2023-10-09T01:36:53;8.17;;;6.57;;
14554;SDS011;7364;50.870;4.722;2023-10-09T01:39:23;10.77;;;7.33;;
14554;SDS011;7364;50.870;4.722;2023-10-09T01:41:51;11.90;;;7.50;;
14554;SDS011;7364;50.870;4.722;2023-10-09T01:44:25;10.80;;;7.57;;
14554;SDS011;7364;50.870;4.722;2023-10-09T01:46:53;8.97;;;7.93;;
14554;SDS011;7364;50.870;4.722;2023-10-09T01:49:23;11.83;;;7.27;;
14554;SDS011;7364;50.870;4.722;2023-10-09T01:51:56;11.10;;;7.50;;
14554;SDS011;7364;50.870;4.722;2023-10-09T01:54:30;9.77;;;7.00;;
14554;SDS011;7364;50.870;4.722;2023-10-09T01:57:02;10.97;;;7.57;;
14554;SDS011;7364;50.870;4.722;2023-10-09T01:59:36;11.60;;;7.50;;
14554;SDS011;7364;50.870;4.722;2023-10-09T02:02:09;11.93;;;8.07;;
14554;SDS011;7364;50.870;4.722;2023-10-09T02:04:57;11.47;;;8.10;;
14554;SDS011;7364;50.870;4.722;2023-10-09T02:07:34;10.80;;;7.13;;
14554;SDS011;7364;50.870;4.722;2023-10-09T02:10:11;12.87;;;7.97;;
14554;SDS011;7364;50.870;4.722;2023-10-09T02:12:51;8.10;;;6.87;;
14554;SDS011;7364;50.870;4.722;2023-10-09T02:15:23;11.40;;;7.50;;
14554;SDS011;7364;50.870;4.722;2023-10-09T02:18:04;10.70;;;7.87;;
14554;SDS011;7364;50.870;4.722;2023-10-09T02:20:42;11.77;;;7.27;;
14554;SDS011;7364;50.870;4.722;2023-10-09T02:23:11;9.70;;;6.80;;
14554;SDS011;7364;50.870;4.722;2023-10-09T02:25:42;9.70;;;7.17;;
14554;SDS011;7364;50.870;4.722;2023-10-09T02:28:10;9.27;;;7.20;;
14554;SDS011;7364;50.870;4.722;2023-10-09T02:30:43;9.63;;;7.30;;
14554;SDS011;7364;50.870;4.722;2023-10-09T02:33:13;9.90;;;7.73;;
14554;SDS011;7364;50.870;4.722;2023-10-09T02:35:46;12.13;;;7.60;;
14554;SDS011;7364;50.870;4.722;2023-10-09T02:38:17;10.27;;;7.10;;
14554;SDS011;7364;50.870;4.722;2023-10-09T02:40:50;9.83;;;6.37;;
14554;SDS011;7364;50.870;4.722;2023-10-09T02:43:35;11.90;;;7.20;;
14554;SDS011;7364;50.870;4.722;2023-10-09T02:46:10;10.47;;;7.40;;
14554;SDS011;7364;50.870;4.722;2023-10-09T02:48:43;12.27;;;7.30;;
14554;SDS011;7364;50.870;4.722;2023-10-09T02:51:15;9.97;;;7.13;;
14554;SDS011;7364;50.870;4.722;2023-10-09T02:53:57;11.13;;;7.20;;
14554;SDS011;7364;50.870;4.722;2023-10-09T02:56:36;8.60;;;7.00;;
14554;SDS011;7364;50.870;4.722;2023-10-09T02:59:08;7.90;;;6.33;;
14554;SDS011;7364;50.870;4.722;2023-10-09T03:01:39;9.60;;;7.50;;
14554;SDS011;7364;50.870;4.722;2023-10-09T03:04:08;14.77;;;8.60;;
14554;SDS011;7364;50.870;4.722;2023-10-09T03:06:37;10.30;;;8.07;;
14554;SDS011;7364;50.870;4.722;2023-10-09T03:09:09;12.83;;;8.33;;
14554;SDS011;7364;50.870;4.722;2023-10-09T03:11:45;9.53;;;6.97;;
14554;SDS011;7364;50.870;4.722;2023-10-09T03:14:13;10.10;;;7.40;;
14554;SDS011;7364;50.870;4.722;2023-10-09T03:16:41;9.70;;;7.23;;
14554;SDS011;7364;50.870;4.722;2023-10-09T03:19:09;8.57;;;7.10;;
14554;SDS011;7364;50.870;4.722;2023-10-09T03:21:38;10.00;;;7.60;;
14554;SDS011;7364;50.870;4.722;2023-10-09T03:24:06;11.87;;;7.77;;
14554;SDS011;7364;50.870;4.722;2023-10-09T03:26:34;9.57;;;7.27;;
14554;SDS011;7364;50.870;4.722;2023-10-09T03:29:03;10.10;;;7.13;;
14554;SDS011;7364;50.870;4.722;2023-10-09T03:31:35;9.10;;;6.83;;
14554;SDS011;7364;50.870;4.722;2023-10-09T03:34:03;9.07;;;6.47;;
14554;SDS011;7364;50.870;4.722;2023-10-09T03:36:31;10.17;;;7.63;;
14554;SDS011;7364;50.870;4.722;2023-10-09T03:39:04;14.47;;;7.77;;
14554;SDS011;7364;50.870;4.722;2023-10-09T03:41:46;9.03;;;6.80;;
14554;SDS011;7364;50.870;4.722;2023-10-09T03:44:16;14.53;;;7.17;;
14554;SDS011;7364;50.870;4.722;2023-10-09T03:46:44;9.40;;;7.43;;
14554;SDS011;7364;50.870;4.722;2023-10-09T03:49:11;13.10;;;6.90;;
14554;SDS011;7364;50.870;4.722;2023-10-09T03:51:47;9.20;;;7.50;;
14554;SDS011;7364;50.870;4.722;2023-10-09T03:54:16;9.83;;;7.40;;
14554;SDS011;7364;50.870;4.722;2023-10-09T03:56:46;10.13;;;7.40;;
14554;SDS011;7364;50.870;4.722;2023-10-09T03:59:16;10.63;;;7.23;;
14554;SDS011;7364;50.870;4.722;2023-10-09T04:01:45;10.17;;;7.53;;
14554;SDS011;7364;50.870;4.722;2023-10-09T04:04:13;9.80;;;7.50;;
14554;SDS011;7364;50.870;4.722;2023-10-09T04:06:41;10.73;;;8.37;;
14554;SDS011;7364;50.870;4.722;2023-10-09T04:09:09;10.03;;;7.43;;
14554;SDS011;7364;50.870;4.722;2023-10-09T04:11:54;11.23;;;7.27;;
14554;SDS011;7364;50.870;4.722;2023-10-09T04:14:40;13.60;;;8.00;;
14554;SDS011;7364;50.870;4.722;2023-10-09T04:17:15;8.73;;;7.53;;
14554;SDS011;7364;50.870;4.722;2023-10-09T04:20:06;11.47;;;7.87;;
14554;SDS011;7364;50.870;4.722;2023-10-09T04:22:57;11.33;;;7.93;;
14554;SDS011;7364;50.870;4.722;2023-10-09T04:25:31;10.93;;;8.73;;
14554;SDS011;7364;50.870;4.722;2023-10-09T04:28:07;12.37;;;7.90;;
14554;SDS011;7364;50.870;4.722;2023-10-09T04:30:45;12.93;;;7.83;;
14554;SDS011;7364;50.870;4.722;2023-10-09T04:33:19;11.93;;;7.67;;
14554;SDS011;7364;50.870;4.722;2023-10-09T04:36:06;9.80;;;6.93;;
14554;SDS011;7364;50.870;4.722;2023-10-09T04:38:47;12.13;;;7.57;;
14554;SDS011;7364;50.870;4.722;2023-10-09T04:41:21;10.60;;;7.93;;
14554;SDS011;7364;50.870;4.722;2023-10-09T04:43:57;11.40;;;8.57;;
14554;SDS011;7364;50.870;4.722;2023-10-09T04:46:45;11.97;;;8.47;;
14554;SDS011;7364;50.870;4.722;2023-10-09T04:49:36;11.37;;;8.03;;
14554;SDS011;7364;50.870;4.722;2023-10-09T04:52:15;14.83;;;8.43;;
14554;SDS011;7364;50.870;4.722;2023-10-09T04:54:56;11.97;;;8.60;;
14554;SDS011;7364;50.870;4.722;2023-10-09T04:57:42;12.33;;;8.53;;
14554;SDS011;7364;50.870;4.722;2023-10-09T05:00:26;10.63;;;8.27;;
14554;SDS011;7364;50.870;4.722;2023-10-09T05:03:13;12.53;;;8.30;;
14554;SDS011;7364;50.870;4.722;2023-10-09T05:05:53;8.63;;;7.23;;
14554;SDS011;7364;50.870;4.722;2023-10-09T05:08:46;12.20;;;8.83;;
14554;SDS011;7364;50.870;4.722;2023-10-09T05:11:13;11.20;;;8.80;;
14554;SDS011;7364;50.870;4.722;2023-10-09T05:13:57;14.30;;;9.07;;
14554;SDS011;7364;50.870;4.722;2023-10-09T05:16:37;10.90;;;8.30;;
14554;SDS011;7364;50.870;4.722;2023-10-09T05:19:20;11.40;;;9.33;;
14554;SDS011;7364;50.870;4.722;2023-10-09T05:22:08;9.40;;;8.10;;
14554;SDS011;7364;50.870;4.722;2023-10-09T05:24:43;16.50;;;9.70;;
14554;SDS011;7364;50.870;4.722;2023-10-09T05:27:12;11.27;;;8.40;;
14554;SDS011;7364;50.870;4.722;2023-10-09T05:30:06;12.37;;;8.23;;
14554;SDS011;7364;50.870;4.722;2023-10-09T05:32:50;11.37;;;9.00;;
14554;SDS011;7364;50.870;4.722;2023-10-09T05:35:22;13.13;;;8.73;;
14554;SDS011;7364;50.870;4.722;2023-10-09T05:38:06;12.63;;;9.03;;
14554;SDS011;7364;50.870;4.722;2023-10-09T05:40:49;15.10;;;9.37;;
14554;SDS011;7364;50.870;4.722;2023-10-09T05:43:19;13.60;;;9.00;;
14554;SDS011;7364;50.870;4.722;2023-10-09T05:46:01;10.30;;;9.00;;
14554;SDS011;7364;50.870;4.722;2023-10-09T05:48:35;13.33;;;9.03;;
14554;SDS011;7364;50.870;4.722;2023-10-09T05:51:20;11.13;;;8.87;;
14554;SDS011;7364;50.870;4.722;2023-10-09T05:54:05;16.73;;;9.00;;
14554;SDS011;7364;50.870;4.722;2023-10-09T05:56:50;12.97;;;9.37;;
14554;SDS011;7364;50.870;4.722;2023-10-09T05:59:46;11.53;;;8.30;;
14554;SDS011;7364;50.870;4.722;2023-10-09T06:02:30;14.47;;;8.53;;
14554;SDS011;7364;50.870;4.722;2023-10-09T06:05:15;14.03;;;9.40;;
14554;SDS011;7364;50.870;4.722;2023-10-09T06:08:01;11.37;;;8.93;;
14554;SDS011;7364;50.870;4.722;2023-10-09T06:10:32;12.03;;;9.10;;
14554;SDS011;7364;50.870;4.722;2023-10-09T06:13:05;12.60;;;9.87;;
14554;SDS011;7364;50.870;4.722;2023-10-09T06:15:55;13.33;;;8.53;;
14554;SDS011;7364;50.870;4.722;2023-10-09T06:18:39;13.33;;;8.80;;
14554;SDS011;7364;50.870;4.722;2023-10-09T06:21:07;13.47;;;9.17;;
14554;SDS011;7364;50.870;4.722;2023-10-09T06:24:06;13.17;;;8.83;;
14554;SDS011;7364;50.870;4.722;2023-10-09T06:26:42;13.43;;;10.07;;
14554;SDS011;7364;50.870;4.722;2023-10-09T06:29:38;13.93;;;8.77;;
14554;SDS011;7364;50.870;4.722;2023-10-09T06:32:17;13.17;;;8.77;;
14554;SDS011;7364;50.870;4.722;2023-10-09T06:35:03;13.03;;;8.57;;
14554;SDS011;7364;50.870;4.722;2023-10-09T06:37:43;12.37;;;9.67;;
14554;SDS011;7364;50.870;4.722;2023-10-09T06:40:30;12.87;;;8.83;;
14554;SDS011;7364;50.870;4.722;2023-10-09T06:43:18;11.07;;;9.00;;
14554;SDS011;7364;50.870;4.722;2023-10-09T06:45:53;12.60;;;9.70;;
14554;SDS011;7364;50.870;4.722;2023-10-09T06:48:23;12.80;;;8.53;;
14554;SDS011;7364;50.870;4.722;2023-10-09T06:51:21;14.63;;;9.37;;
14554;SDS011;7364;50.870;4.722;2023-10-09T06:54:06;15.80;;;10.33;;
14554;SDS011;7364;50.870;4.722;2023-10-09T06:56:36;12.07;;;10.10;;
14554;SDS011;7364;50.870;4.722;2023-10-09T06:59:29;20.17;;;9.13;;
14554;SDS011;7364;50.870;4.722;2023-10-09T07:02:08;14.30;;;9.03;;
14554;SDS011;7364;50.870;4.722;2023-10-09T07:04:56;14.77;;;10.23;;
14554;SDS011;7364;50.870;4.722;2023-10-09T07:07:36;11.80;;;9.60;;
14554;SDS011;7364;50.870;4.722;2023-10-09T07:10:16;11.67;;;9.13;;
14554;SDS011;7364;50.870;4.722;2023-10-09T07:12:56;15.37;;;9.70;;
14554;SDS011;7364;50.870;4.722;2023-10-09T07:15:23;11.70;;;8.70;;
14554;SDS011;7364;50.870;4.722;2023-10-09T07:18:19;10.57;;;8.10;;
14554;SDS011;7364;50.870;4.722;2023-10-09T07:20:48;13.10;;;9.57;;
14554;SDS011;7364;50.870;4.722;2023-10-09T07:23:24;10.53;;;8.50;;
14554;SDS011;7364;50.870;4.722;2023-10-09T07:26:04;11.30;;;8.77;;
14554;SDS011;7364;50.870;4.722;2023-10-09T07:28:50;11.17;;;8.47;;
14554;SDS011;7364;50.870;4.722;2023-10-09T07:31:26;15.10;;;9.20;;
14554;SDS011;7364;50.870;4.722;2023-10-09T07:33:54;10.50;;;8.67;;
14554;SDS011;7364;50.870;4.722;2023-10-09T07:36:25;10.40;;;9.00;;
14554;SDS011;7364;50.870;4.722;2023-10-09T07:39:03;12.13;;;9.13;;
14554;SDS011;7364;50.870;4.722;2023-10-09T07:41:42;11.43;;;8.80;;
14554;SDS011;7364;50.870;4.722;2023-10-09T07:44:28;13.27;;;9.77;;
14554;SDS011;7364;50.870;4.722;2023-10-09T07:47:07;15.47;;;8.70;;
14554;SDS011;7364;50.870;4.722;2023-10-09T07:49:54;10.80;;;8.00;;
14554;SDS011;7364;50.870;4.722;2023-10-09T07:52:25;11.60;;;8.67;;
14554;SDS011;7364;50.870;4.722;2023-10-09T07:54:52;16.93;;;9.03;;
14554;SDS011;7364;50.870;4.722;2023-10-09T07:57:30;13.23;;;10.17;;
14554;SDS011;7364;50.870;4.722;2023-10-09T08:00:07;12.80;;;9.67;;
14554;SDS011;7364;50.870;4.722;2023-10-09T08:02:59;11.03;;;9.60;;
14554;SDS011;7364;50.870;4.722;2023-10-09T08:05:27;15.60;;;10.47;;
14554;SDS011;7364;50.870;4.722;2023-10-09T08:07:59;11.80;;;8.67;;
14554;SDS011;7364;50.870;4.722;2023-10-09T08:10:51;12.67;;;8.87;;
14554;SDS011;7364;50.870;4.722;2023-10-09T08:13:36;14.20;;;10.30;;
14554;SDS011;7364;50.870;4.722;2023-10-09T08:16:23;27.70;;;13.60;;
14554;SDS011;7364;50.870;4.722;2023-10-09T08:19:02;19.17;;;11.30;;
14554;SDS011;7364;50.870;4.722;2023-10-09T08:21:51;14.80;;;9.97;;
14554;SDS011;7364;50.870;4.722;2023-10-09T08:24:42;15.00;;;9.40;;
14554;SDS011;7364;50.870;4.722;2023-10-09T08:27:17;13.40;;;9.87;;
14554;SDS011;7364;50.870;4.722;2023-10-09T08:30:03;13.50;;;10.80;;
14554;SDS011;7364;50.870;4.722;2023-10-09T08:32:55;12.03;;;8.97;;
14554;SDS011;7364;50.870;4.722;2023-10-09T08:35:28;12.77;;;10.07;;
14554;SDS011;7364;50.870;4.722;2023-10-09T08:37:56;14.07;;;9.90;;
14554;SDS011;7364;50.870;4.722;2023-10-09T08:40:31;13.43;;;10.50;;
14554;SDS011;7364;50.870;4.722;2023-10-09T08:43:06;13.27;;;10.57;;
14554;SDS011;7364;50.870;4.722;2023-10-09T08:45:37;12.63;;;10.07;;
14554;SDS011;7364;50.870;4.722;2023-10-09T08:48:08;13.03;;;10.23;;
14554;SDS011;7364;50.870;4.722;2023-10-09T08:50:40;15.40;;;10.67;;
14554;SDS011;7364;50.870;4.722;2023-10-09T08:53:08;16.90;;;11.17;;
14554;SDS011;7364;50.870;4.722;2023-10-09T08:55:36;16.07;;;9.80;;
14554;SDS011;7364;50.870;4.722;2023-10-09T08:58:05;14.73;;;9.73;;
14554;SDS011;7364;50.870;4.722;2023-10-09T09:00:38;14.40;;;10.40;;
14554;SDS011;7364;50.870;4.722;2023-10-09T09:03:13;12.57;;;9.60;;
14554;SDS011;7364;50.870;4.722;2023-10-09T09:05:43;11.37;;;10.17;;
14554;SDS011;7364;50.870;4.722;2023-10-09T09:08:23;13.00;;;10.07;;
14554;SDS011;7364;50.870;4.722;2023-10-09T09:10:56;15.20;;;10.37;;
14554;SDS011;7364;50.870;4.722;2023-10-09T09:13:36;12.90;;;10.27;;
14554;SDS011;7364;50.870;4.722;2023-10-09T09:16:13;14.20;;;9.63;;
14554;SDS011;7364;50.870;4.722;2023-10-09T09:18:53;13.57;;;9.33;;
14554;SDS011;7364;50.870;4.722;2023-10-09T09:21:30;13.73;;;9.57;;
14554;SDS011;7364;50.870;4.722;2023-10-09T09:24:06;11.90;;;10.23;;
14554;SDS011;7364;50.870;4.722;2023-10-09T09:26:52;11.93;;;10.23;;
14554;SDS011;7364;50.870;4.722;2023-10-09T09:29:37;13.07;;;9.93;;
14554;SDS011;7364;50.870;4.722;2023-10-09T09:32:06;19.43;;;10.67;;
14554;SDS011;7364;50.870;4.722;2023-10-09T09:34:47;12.97;;;9.60;;
14554;SDS011;7364;50.870;4.722;2023-10-09T09:37:18;14.90;;;9.07;;
14554;SDS011;7364;50.870;4.722;2023-10-09T09:39:46;14.73;;;9.63;;
14554;SDS011;7364;50.870;4.722;2023-10-09T09:42:16;15.17;;;10.10;;
14554;SDS011;7364;50.870;4.722;2023-10-09T09:44:50;11.70;;;9.33;;
14554;SDS011;7364;50.870;4.722;2023-10-09T09:47:19;13.57;;;9.67;;
14554;SDS011;7364;50.870;4.722;2023-10-09T09:49:53;12.40;;;8.83;;
14554;SDS011;7364;50.870;4.722;2023-10-09T09:52:26;12.23;;;9.20;;
14554;SDS011;7364;50.870;4.722;2023-10-09T09:55:04;11.57;;;8.87;;
14554;SDS011;7364;50.870;4.722;2023-10-09T09:57:39;12.67;;;8.93;;
14554;SDS011;7364;50.870;4.722;2023-10-09T10:00:11;10.53;;;8.90;;
14554;SDS011;7364;50.870;4.722;2023-10-09T10:02:54;15.63;;;9.63;;
14554;SDS011;7364;50.870;4.722;2023-10-09T10:05:27;16.87;;;10.87;;
14554;SDS011;7364;50.870;4.722;2023-10-09T10:07:57;14.43;;;10.17;;
14554;SDS011;7364;50.870;4.722;2023-10-09T10:10:35;12.57;;;10.50;;
14554;SDS011;7364;50.870;4.722;2023-10-09T10:13:15;12.47;;;9.30;;
14554;SDS011;7364;50.870;4.722;2023-10-09T10:16:05;11.40;;;8.40;;
14554;SDS011;7364;50.870;4.722;2023-10-09T10:18:52;14.63;;;10.27;;
14554;SDS011;7364;50.870;4.722;2023-10-09T10:21:23;14.00;;;10.20;;
14554;SDS011;7364;50.870;4.722;2023-10-09T10:24:03;14.93;;;9.97;;
14554;SDS011;7364;50.870;4.722;2023-10-09T10:26:33;13.07;;;10.33;;
14554;SDS011;7364;50.870;4.722;2023-10-09T10:29:19;12.50;;;10.10;;
14554;SDS011;7364;50.870;4.722;2023-10-09T10:31:52;14.70;;;10.40;;
14554;SDS011;7364;50.870;4.722;2023-10-09T10:34:25;11.17;;;9.70;;
14554;SDS011;7364;50.870;4.722;2023-10-09T10:37:14;13.27;;;9.00;;
14554;SDS011;7364;50.870;4.722;2023-10-09T10:39:49;16.63;;;9.50;;
14554;SDS011;7364;50.870;4.722;2023-10-09T10:42:24;12.07;;;8.40;;
14554;SDS011;7364;50.870;4.722;2023-10-09T10:45:00;12.83;;;8.53;;
14554;SDS011;7364;50.870;4.722;2023-10-09T10:47:41;11.27;;;8.10;;
14554;SDS011;7364;50.870;4.722;2023-10-09T10:50:08;11.73;;;9.07;;
14554;SDS011;7364;50.870;4.722;2023-10-09T10:53:09;13.63;;;8.77;;
14554;SDS011;7364;50.870;4.722;2023-10-09T10:55:54;14.87;;;7.70;;
14554;SDS011;7364;50.870;4.722;2023-10-09T10:58:22;11.27;;;8.10;;
14554;SDS011;7364;50.870;4.722;2023-10-09T11:01:01;15.10;;;9.13;;
14554;SDS011;7364;50.870;4.722;2023-10-09T11:03:41;13.60;;;8.80;;
14554;SDS011;7364;50.870;4.722;2023-10-09T11:06:25;12.53;;;8.43;;
14554;SDS011;7364;50.870;4.722;2023-10-09T11:09:04;11.87;;;8.50;;
14554;SDS011;7364;50.870;4.722;2023-10-09T11:11:46;14.03;;;7.30;;
14554;SDS011;7364;50.870;4.722;2023-10-09T11:14:15;13.87;;;8.20;;
14554;SDS011;7364;50.870;4.722;2023-10-09T11:16:49;11.23;;;9.40;;
14554;SDS011;7364;50.870;4.722;2023-10-09T11:19:23;11.63;;;8.03;;
14554;SDS011;7364;50.870;4.722;2023-10-09T11:21:56;14.00;;;8.97;;
14554;SDS011;7364;50.870;4.722;2023-10-09T11:24:49;14.23;;;8.80;;
14554;SDS011;7364;50.870;4.722;2023-10-09T11:27:31;11.47;;;8.83;;
14554;SDS011;7364;50.870;4.722;2023-10-09T11:30:03;10.67;;;8.20;;
14554;SDS011;7364;50.870;4.722;2023-10-09T11:32:47;14.77;;;7.80;;
14554;SDS011;7364;50.870;4.722;2023-10-09T11:35:17;9.53;;;7.67;;
14554;SDS011;7364;50.870;4.722;2023-10-09T11:37:55;11.37;;;8.07;;
14554;SDS011;7364;50.870;4.722;2023-10-09T11:40:30;11.70;;;7.80;;
14554;SDS011;7364;50.870;4.722;2023-10-09T11:43:13;13.17;;;8.57;;
14554;SDS011;7364;50.870;4.722;2023-10-09T11:45:40;14.43;;;8.73;;
14554;SDS011;7364;50.870;4.722;2023-10-09T11:48:20;13.00;;;9.57;;
14554;SDS011;7364;50.870;4.722;2023-10-09T11:50:51;19.40;;;9.43;;
14554;SDS011;7364;50.870;4.722;2023-10-09T11:53:21;11.67;;;8.33;;
14554;SDS011;7364;50.870;4.722;2023-10-09T11:56:02;11.00;;;8.07;;
14554;SDS011;7364;50.870;4.722;2023-10-09T11:58:29;13.00;;;8.73;;
14554;SDS011;7364;50.870;4.722;2023-10-09T12:00:57;11.60;;;8.43;;
14554;SDS011;7364;50.870;4.722;2023-10-09T12:03:28;11.60;;;8.27;;
14554;SDS011;7364;50.870;4.722;2023-10-09T12:05:56;10.77;;;7.67;;
14554;SDS011;7364;50.870;4.722;2023-10-09T12:08:30;13.90;;;8.33;;
14554;SDS011;7364;50.870;4.722;2023-10-09T12:10:57;8.77;;;7.10;;
14554;SDS011;7364;50.870;4.722;2023-10-09T12:13:35;11.13;;;7.93;;
14554;SDS011;7364;50.870;4.722;2023-10-09T12:16:03;10.70;;;7.20;;
14554;SDS011;7364;50.870;4.722;2023-10-09T12:18:34;14.47;;;9.27;;
14554;SDS011;7364;50.870;4.722;2023-10-09T12:21:02;10.90;;;7.13;;
14554;SDS011;7364;50.870;4.722;2023-10-09T12:23:29;13.03;;;8.67;;
14554;SDS011;7364;50.870;4.722;2023-10-09T12:26:01;13.63;;;8.33;;
14554;SDS011;7364;50.870;4.722;2023-10-09T12:28:30;12.23;;;9.10;;
14554;SDS011;7364;50.870;4.722;2023-10-09T12:31:00;15.20;;;9.50;;
14554;SDS011;7364;50.870;4.722;2023-10-09T12:33:27;14.87;;;8.10;;
14554;SDS011;7364;50.870;4.722;2023-10-09T12:35:56;14.33;;;8.50;;
14554;SDS011;7364;50.870;4.722;2023-10-09T12:38:25;12.57;;;8.27;;
14554;SDS011;7364;50.870;4.722;2023-10-09T12:41:00;11.50;;;8.90;;
14554;SDS011;7364;50.870;4.722;2023-10-09T12:43:33;11.73;;;7.40;;
14554;SDS011;7364;50.870;4.722;2023-10-09T12:46:05;11.13;;;8.27;;
14554;SDS011;7364;50.870;4.722;2023-10-09T12:48:33;12.50;;;8.03;;
14554;SDS011;7364;50.870;4.722;2023-10-09T12:51:01;14.13;;;8.47;;
14554;SDS011;7364;50.870;4.722;2023-10-09T12:53:31;13.60;;;8.47;;
14554;SDS011;7364;50.870;4.722;2023-10-09T12:55:59;11.03;;;7.40;;
14554;SDS011;7364;50.870;4.722;2023-10-09T12:58:26;9.17;;;6.97;;
14554;SDS011;7364;50.870;4.722;2023-10-09T13:00:53;11.87;;;9.30;;
14554;SDS011;7364;50.870;4.722;2023-10-09T13:03:22;12.43;;;8.43;;
14554;SDS011;7364;50.870;4.722;2023-10-09T13:05:53;12.73;;;8.70;;
14554;SDS011;7364;50.870;4.722;2023-10-09T13:08:25;12.73;;;9.13;;
14554;SDS011;7364;50.870;4.722;2023-10-09T13:10:56;14.33;;;10.57;;
14554;SDS011;7364;50.870;4.722;2023-10-09T13:13:33;12.90;;;10.07;;
14554;SDS011;7364;50.870;4.722;2023-10-09T13:16:07;19.03;;;10.10;;
14554;SDS011;7364;50.870;4.722;2023-10-09T13:18:40;16.13;;;10.67;;
14554;SDS011;7364;50.870;4.722;2023-10-09T13:21:15;17.83;;;11.43;;
14554;SDS011;7364;50.870;4.722;2023-10-09T13:23:42;15.33;;;10.13;;
14554;SDS011;7364;50.870;4.722;2023-10-09T13:26:12;16.27;;;10.60;;
14554;SDS011;7364;50.870;4.722;2023-10-09T13:28:49;16.13;;;10.00;;
14554;SDS011;7364;50.870;4.722;2023-10-09T13:31:18;15.77;;;9.90;;
14554;SDS011;7364;50.870;4.722;2023-10-09T13:33:48;16.23;;;9.73;;
14554;SDS011;7364;50.870;4.722;2023-10-09T13:36:20;19.03;;;10.43;;
14554;SDS011;7364;50.870;4.722;2023-10-09T13:38:56;15.00;;;10.57;;
14554;SDS011;7364;50.870;4.722;2023-10-09T13:41:27;15.03;;;9.60;;
14554;SDS011;7364;50.870;4.722;2023-10-09T13:43:55;21.13;;;10.13;;
14554;SDS011;7364;50.870;4.722;2023-10-09T13:46:24;17.37;;;11.67;;
14554;SDS011;7364;50.870;4.722;2023-10-09T13:48:53;14.17;;;10.40;;
14554;SDS011;7364;50.870;4.722;2023-10-09T13:51:21;16.77;;;11.23;;
14554;SDS011;7364;50.870;4.722;2023-10-09T13:53:49;14.87;;;10.73;;
14554;SDS011;7364;50.870;4.722;2023-10-09T13:56:18;14.70;;;11.50;;
14554;SDS011;7364;50.870;4.722;2023-10-09T13:58:47;14.67;;;10.93;;
14554;SDS011;7364;50.870;4.722;2023-10-09T14:01:16;13.97;;;10.97;;
14554;SDS011;7364;50.870;4.722;2023-10-09T14:03:56;12.93;;;10.90;;
14554;SDS011;7364;50.870;4.722;2023-10-09T14:06:26;14.60;;;10.40;;
14554;SDS011;7364;50.870;4.722;2023-10-09T14:08:57;16.97;;;11.40;;
14554;SDS011;7364;50.870;4.722;2023-10-09T14:11:28;14.73;;;10.47;;
14554;SDS011;7364;50.870;4.722;2023-10-09T14:13:56;16.77;;;11.37;;
14554;SDS011;7364;50.870;4.722;2023-10-09T14:16:25;14.97;;;10.43;;
14554;SDS011;7364;50.870;4.722;2023-10-09T14:18:55;15.80;;;10.97;;
14554;SDS011;7364;50.870;4.722;2023-10-09T14:21:24;14.57;;;10.47;;
14554;SDS011;7364;50.870;4.722;2023-10-09T14:23:53;16.27;;;11.77;;
14554;SDS011;7364;50.870;4.722;2023-10-09T14:26:26;18.57;;;11.43;;
14554;SDS011;7364;50.870;4.722;2023-10-09T14:28:54;16.43;;;11.87;;
14554;SDS011;7364;50.870;4.722;2023-10-09T14:31:24;17.87;;;11.30;;
14554;SDS011;7364;50.870;4.722;2023-10-09T14:33:56;15.67;;;10.27;;
14554;SDS011;7364;50.870;4.722;2023-10-09T14:36:24;12.37;;;10.10;;
14554;SDS011;7364;50.870;4.722;2023-10-09T14:38:59;15.50;;;10.77;;
14554;SDS011;7364;50.870;4.722;2023-10-09T14:41:26;15.73;;;11.27;;
14554;SDS011;7364;50.870;4.722;2023-10-09T14:43:58;19.77;;;11.47;;
14554;SDS011;7364;50.870;4.722;2023-10-09T14:46:26;17.07;;;11.23;;
14554;SDS011;7364;50.870;4.722;2023-10-09T14:48:56;15.53;;;10.70;;
14554;SDS011;7364;50.870;4.722;2023-10-09T14:51:25;18.67;;;11.70;;
14554;SDS011;7364;50.870;4.722;2023-10-09T14:53:55;13.47;;;10.43;;
14554;SDS011;7364;50.870;4.722;2023-10-09T14:56:27;13.77;;;10.17;;
14554;SDS011;7364;50.870;4.722;2023-10-09T14:58:55;12.13;;;10.83;;
14554;SDS011;7364;50.870;4.722;2023-10-09T15:01:24;15.60;;;11.03;;
14554;SDS011;7364;50.870;4.722;2023-10-09T15:03:56;15.40;;;10.93;;
14554;SDS011;7364;50.870;4.722;2023-10-09T15:06:24;16.27;;;11.63;;
14554;SDS011;7364;50.870;4.722;2023-10-09T15:08:55;13.47;;;10.83;;
14554;SDS011;7364;50.870;4.722;2023-10-09T15:11:23;17.87;;;11.20;;
14554;SDS011;7364;50.870;4.722;2023-10-09T15:13:53;14.33;;;11.13;;
14554;SDS011;7364;50.870;4.722;2023-10-09T15:16:23;15.67;;;11.93;;
14554;SDS011;7364;50.870;4.722;2023-10-09T15:18:52;20.30;;;11.90;;
14554;SDS011;7364;50.870;4.722;2023-10-09T15:21:23;15.40;;;11.07;;
14554;SDS011;7364;50.870;4.722;2023-10-09T15:23:53;17.50;;;12.23;;
14554;SDS011;7364;50.870;4.722;2023-10-09T15:26:20;15.90;;;10.77;;
14554;SDS011;7364;50.870;4.722;2023-10-09T15:28:49;13.57;;;10.50;;
14554;SDS011;7364;50.870;4.722;2023-10-09T15:31:17;17.80;;;11.67;;
14554;SDS011;7364;50.870;4.722;2023-10-09T15:33:46;15.27;;;11.73;;